sensor_id;sensor_type;location;lat;lon;timestamp;pressure;altitude;pressure_sealevel;temperature;humidity
32735;BME280;19112;51.076;3.706;2022-10-16T00:00:39;100823.13;;;15.57;71.10
32735;BME280;19112;51.076;3.706;2022-10-16T00:03:06;100882.63;;;15.85;71.22
32735;BME280;19112;51.076;3.706;2022-10-16T00:05:32;100874.59;;;15.79;71.51
32735;BME280;19112;51.076;3.706;2022-10-16T00:07:58;100874.50;;;15.71;71.67
32735;BME280;19112;51.076;3.706;2022-10-16T00:10:24;100837.03;;;15.40;71.75
32735;BME280;19112;51.076;3.706;2022-10-16T00:12:50;100882.19;;;15.54;72.41
32735;BME280;19112;51.076;3.706;2022-10-16T00:15:21;100883.91;;;15.51;72.81
32735;BME280;19112;51.076;3.706;2022-10-16T00:17:47;100839.47;;;15.25;72.93
32735;BME280;19112;51.076;3.706;2022-10-16T00:20:13;100787.75;;;14.83;73.46
32735;BME280;19112;51.076;3.706;2022-10-16T00:22:39;100850.72;;;15.10;73.75
32735;BME280;19112;51.076;3.706;2022-10-16T00:25:05;100849.81;;;15.08;73.74
32735;BME280;19112;51.076;3.706;2022-10-16T00:27:31;100839.03;;;14.96;74.06
32735;BME280;19112;51.076;3.706;2022-10-16T00:29:57;100882.69;;;15.26;74.06
32735;BME280;19112;51.076;3.706;2022-10-16T00:32:23;100806.25;;;14.83;74.05
32735;BME280;19112;51.076;3.706;2022-10-16T00:34:48;100883.56;;;15.28;73.97
32735;BME280;19112;51.076;3.706;2022-10-16T00:37:14;100886.06;;;15.17;73.89
32735;BME280;19112;51.076;3.706;2022-10-16T00:39:42;100890.50;;;15.18;74.43
32735;BME280;19112;51.076;3.706;2022-10-16T00:42:16;100806.88;;;14.65;74.41
32735;BME280;19112;51.076;3.706;2022-10-16T00:44:55;100848.66;;;14.91;74.59
32735;BME280;19112;51.076;3.706;2022-10-16T00:47:42;100857.50;;;14.91;74.85
32735;BME280;19112;51.076;3.706;2022-10-16T00:50:30;100888.53;;;15.03;75.39
32735;BME280;19112;51.076;3.706;2022-10-16T00:52:57;100863.69;;;14.93;75.50
32735;BME280;19112;51.076;3.706;2022-10-16T00:55:25;100889.31;;;14.99;75.98
32735;BME280;19112;51.076;3.706;2022-10-16T00:57:52;100887.50;;;14.95;76.35
32735;BME280;19112;51.076;3.706;2022-10-16T01:00:22;100890.16;;;14.97;76.30
32735;BME280;19112;51.076;3.706;2022-10-16T01:02:58;100811.72;;;14.42;76.63
32735;BME280;19112;51.076;3.706;2022-10-16T01:05:39;100891.97;;;14.98;76.98
32735;BME280;19112;51.076;3.706;2022-10-16T01:08:32;100859.06;;;14.80;76.82
32735;BME280;19112;51.076;3.706;2022-10-16T01:11:22;100883.31;;;15.08;76.81
32735;BME280;19112;51.076;3.706;2022-10-16T01:13:55;100852.16;;;14.90;76.70
32735;BME280;19112;51.076;3.706;2022-10-16T01:16:43;100856.47;;;14.85;76.79
32735;BME280;19112;51.076;3.706;2022-10-16T01:22:10;100837.59;;;14.60;77.17
32735;BME280;19112;51.076;3.706;2022-10-16T01:24:44;100890.03;;;14.87;77.40
32735;BME280;19112;51.076;3.706;2022-10-16T01:27:28;100779.84;;;14.32;77.63
32735;BME280;19112;51.076;3.706;2022-10-16T01:30:15;100899.78;;;14.91;77.79
32735;BME280;19112;51.076;3.706;2022-10-16T01:32:55;100773.47;;;14.18;78.06
32735;BME280;19112;51.076;3.706;2022-10-16T01:35:35;100890.91;;;14.88;78.26
32735;BME280;19112;51.076;3.706;2022-10-16T01:38:24;100894.44;;;14.87;78.21
32735;BME280;19112;51.076;3.706;2022-10-16T01:40:58;100889.06;;;14.82;78.66
32735;BME280;19112;51.076;3.706;2022-10-16T01:43:34;100854.44;;;14.65;78.56
32735;BME280;19112;51.076;3.706;2022-10-16T01:46:05;100842.78;;;14.54;78.57
32735;BME280;19112;51.076;3.706;2022-10-16T01:48:33;100854.47;;;14.68;78.76
32735;BME280;19112;51.076;3.706;2022-10-16T01:51:14;100870.28;;;14.65;78.98
32735;BME280;19112;51.076;3.706;2022-10-16T01:53:45;100886.41;;;14.81;78.99
32735;BME280;19112;51.076;3.706;2022-10-16T01:56:14;100877.53;;;14.79;79.41
32735;BME280;19112;51.076;3.706;2022-10-16T01:58:55;100877.53;;;14.79;79.49
32735;BME280;19112;51.076;3.706;2022-10-16T02:01:26;100804.56;;;14.35;79.38
32735;BME280;19112;51.076;3.706;2022-10-16T02:03:56;100781.31;;;14.13;79.73
32735;BME280;19112;51.076;3.706;2022-10-16T02:06:23;100784.75;;;14.10;79.65
32735;BME280;19112;51.076;3.706;2022-10-16T02:08:51;100829.50;;;14.50;79.78
32735;BME280;19112;51.076;3.706;2022-10-16T02:11:17;100825.00;;;14.46;79.66
32735;BME280;19112;51.076;3.706;2022-10-16T02:13:48;100802.72;;;14.31;79.54
32735;BME280;19112;51.076;3.706;2022-10-16T02:16:15;100860.59;;;14.66;79.97
32735;BME280;19112;51.076;3.706;2022-10-16T02:18:43;100816.03;;;14.37;80.15
32735;BME280;19112;51.076;3.706;2022-10-16T02:21:33;100835.78;;;14.56;79.71
32735;BME280;19112;51.076;3.706;2022-10-16T02:29:39;100811.63;;;14.38;79.64
32735;BME280;19112;51.076;3.706;2022-10-16T02:32:12;100809.03;;;14.39;79.64
32735;BME280;19112;51.076;3.706;2022-10-16T02:34:43;100863.34;;;14.72;79.54
32735;BME280;19112;51.076;3.706;2022-10-16T02:37:10;100863.25;;;14.66;79.72
32735;BME280;19112;51.076;3.706;2022-10-16T02:39:37;100855.16;;;14.57;79.40
32735;BME280;19112;51.076;3.706;2022-10-16T02:42:04;100913.75;;;14.86;79.41
32735;BME280;19112;51.076;3.706;2022-10-16T02:44:30;100859.38;;;14.47;79.38
32735;BME280;19112;51.076;3.706;2022-10-16T02:46:58;100890.59;;;14.70;79.43
32735;BME280;19112;51.076;3.706;2022-10-16T02:49:24;100782.09;;;14.07;79.34
32735;BME280;19112;51.076;3.706;2022-10-16T02:51:50;100919.97;;;14.86;79.32
32735;BME280;19112;51.076;3.706;2022-10-16T02:54:15;100898.56;;;14.71;79.31
32735;BME280;19112;51.076;3.706;2022-10-16T02:56:41;100816.59;;;14.18;79.24
32735;BME280;19112;51.076;3.706;2022-10-16T02:59:07;100906.41;;;14.66;79.37
32735;BME280;19112;51.076;3.706;2022-10-16T03:01:33;100932.28;;;14.86;79.18
32735;BME280;19112;51.076;3.706;2022-10-16T03:03:59;100895.81;;;14.65;79.20
32735;BME280;19112;51.076;3.706;2022-10-16T03:06:25;100954.28;;;14.85;79.19
32735;BME280;19112;51.076;3.706;2022-10-16T03:08:51;100900.88;;;14.53;79.45
32735;BME280;19112;51.076;3.706;2022-10-16T03:11:17;100951.59;;;14.82;79.37
32735;BME280;19112;51.076;3.706;2022-10-16T03:13:43;100867.78;;;14.26;79.34
32735;BME280;19112;51.076;3.706;2022-10-16T03:16:09;100931.00;;;14.62;79.41
32735;BME280;19112;51.076;3.706;2022-10-16T03:18:35;100809.97;;;13.95;79.54
32735;BME280;19112;51.076;3.706;2022-10-16T03:21:00;100958.56;;;14.77;79.38
32735;BME280;19112;51.076;3.706;2022-10-16T03:23:26;100833.06;;;14.05;79.57
32735;BME280;19112;51.076;3.706;2022-10-16T03:25:52;100947.75;;;14.64;79.74
32735;BME280;19112;51.076;3.706;2022-10-16T03:28:20;100947.72;;;14.63;79.91
32735;BME280;19112;51.076;3.706;2022-10-16T03:30:46;100914.72;;;14.42;80.22
32735;BME280;19112;51.076;3.706;2022-10-16T03:33:11;100951.19;;;14.59;80.24
32735;BME280;19112;51.076;3.706;2022-10-16T03:35:38;100957.34;;;14.59;80.28
32735;BME280;19112;51.076;3.706;2022-10-16T03:38:03;100962.63;;;14.59;80.21
32735;BME280;19112;51.076;3.706;2022-10-16T03:40:29;100963.50;;;14.58;80.13
32735;BME280;19112;51.076;3.706;2022-10-16T03:42:58;100967.00;;;14.56;80.26
32735;BME280;19112;51.076;3.706;2022-10-16T03:45:24;100883.31;;;14.09;80.15
32735;BME280;19112;51.076;3.706;2022-10-16T03:47:50;100902.84;;;14.18;80.21
32735;BME280;19112;51.076;3.706;2022-10-16T03:50:16;100908.94;;;14.15;80.31
32735;BME280;19112;51.076;3.706;2022-10-16T03:52:42;100935.66;;;14.32;80.48
32735;BME280;19112;51.076;3.706;2022-10-16T03:55:09;100934.69;;;14.27;80.60
32735;BME280;19112;51.076;3.706;2022-10-16T03:57:35;100956.06;;;14.39;80.69
32735;BME280;19112;51.076;3.706;2022-10-16T04:00:01;100936.41;;;14.25;80.52
32735;BME280;19112;51.076;3.706;2022-10-16T04:02:27;100939.94;;;14.24;80.50
32735;BME280;19112;51.076;3.706;2022-10-16T04:04:52;100979.00;;;14.41;80.62
32735;BME280;19112;51.076;3.706;2022-10-16T04:07:18;100929.03;;;14.07;80.90
32735;BME280;19112;51.076;3.706;2022-10-16T04:09:44;100924.63;;;14.07;80.69
32735;BME280;19112;51.076;3.706;2022-10-16T04:12:10;100976.25;;;14.35;80.75
32735;BME280;19112;51.076;3.706;2022-10-16T04:14:35;100848.78;;;13.55;80.87
32735;BME280;19112;51.076;3.706;2022-10-16T04:17:02;100983.09;;;14.26;81.16
32735;BME280;19112;51.076;3.706;2022-10-16T04:19:28;100938.50;;;13.97;81.02
32735;BME280;19112;51.076;3.706;2022-10-16T04:21:53;100951.94;;;14.09;81.23
32735;BME280;19112;51.076;3.706;2022-10-16T04:24:19;100993.63;;;14.24;81.18
32735;BME280;19112;51.076;3.706;2022-10-16T04:26:45;100997.06;;;14.22;81.15
32735;BME280;19112;51.076;3.706;2022-10-16T04:29:11;100920.56;;;13.81;81.26
32735;BME280;19112;51.076;3.706;2022-10-16T04:31:36;100914.31;;;13.76;81.47
32735;BME280;19112;51.076;3.706;2022-10-16T04:34:02;100905.38;;;13.69;81.41
32735;BME280;19112;51.076;3.706;2022-10-16T04:36:28;100962.25;;;13.97;81.41
32735;BME280;19112;51.076;3.706;2022-10-16T04:38:54;100929.41;;;13.83;81.40
32735;BME280;19112;51.076;3.706;2022-10-16T04:41:19;101019.13;;;14.22;81.41
32735;BME280;19112;51.076;3.706;2022-10-16T04:43:45;100805.44;;;13.03;81.24
32735;BME280;19112;51.076;3.706;2022-10-16T04:46:11;100960.50;;;13.98;81.34
32735;BME280;19112;51.076;3.706;2022-10-16T04:48:36;101017.50;;;14.29;81.39
32735;BME280;19112;51.076;3.706;2022-10-16T04:51:04;100997.84;;;14.16;81.37
32735;BME280;19112;51.076;3.706;2022-10-16T04:53:30;100986.28;;;14.09;81.27
32735;BME280;19112;51.076;3.706;2022-10-16T04:55:56;100989.78;;;14.08;81.45
32735;BME280;19112;51.076;3.706;2022-10-16T04:58:22;100995.19;;;14.14;81.29
32735;BME280;19112;51.076;3.706;2022-10-16T05:00:50;100976.50;;;14.05;81.23
32735;BME280;19112;51.076;3.706;2022-10-16T05:03:16;101038.75;;;14.35;81.02
32735;BME280;19112;51.076;3.706;2022-10-16T05:05:44;101037.00;;;14.35;81.13
32735;BME280;19112;51.076;3.706;2022-10-16T05:08:13;100866.03;;;13.39;80.92
32735;BME280;19112;51.076;3.706;2022-10-16T05:10:42;101057.34;;;14.39;81.29
32735;BME280;19112;51.076;3.706;2022-10-16T05:13:08;100895.31;;;13.51;81.01
32735;BME280;19112;51.076;3.706;2022-10-16T05:15:34;101060.34;;;14.55;80.97
32735;BME280;19112;51.076;3.706;2022-10-16T05:18:00;101058.56;;;14.55;80.97
32735;BME280;19112;51.076;3.706;2022-10-16T05:20:26;101003.34;;;14.27;80.58
32735;BME280;19112;51.076;3.706;2022-10-16T05:22:51;100925.09;;;13.88;80.44
32735;BME280;19112;51.076;3.706;2022-10-16T05:25:17;101081.81;;;14.73;80.39
32735;BME280;19112;51.076;3.706;2022-10-16T05:27:47;101032.03;;;14.49;80.19
32735;BME280;19112;51.076;3.706;2022-10-16T05:30:13;101083.78;;;14.82;80.13
32735;BME280;19112;51.076;3.706;2022-10-16T05:32:38;101065.94;;;14.72;79.81
32735;BME280;19112;51.076;3.706;2022-10-16T05:35:06;101002.72;;;14.38;79.69
32735;BME280;19112;51.076;3.706;2022-10-16T05:37:32;101060.69;;;14.73;79.58
32735;BME280;19112;51.076;3.706;2022-10-16T05:39:57;101100.00;;;15.02;79.30
32735;BME280;19112;51.076;3.706;2022-10-16T05:42:23;100973.53;;;14.32;79.26
32735;BME280;19112;51.076;3.706;2022-10-16T05:44:49;101108.78;;;15.01;79.07
32735;BME280;19112;51.076;3.706;2022-10-16T05:47:16;101070.44;;;14.76;78.88
32735;BME280;19112;51.076;3.706;2022-10-16T05:49:41;100957.00;;;13.99;78.66
32735;BME280;19112;51.076;3.706;2022-10-16T05:52:07;101110.31;;;14.86;78.85
32735;BME280;19112;51.076;3.706;2022-10-16T05:54:33;100965.66;;;13.92;78.83
32735;BME280;19112;51.076;3.706;2022-10-16T05:56:59;100951.28;;;13.77;78.98
32735;BME280;19112;51.076;3.706;2022-10-16T05:59:25;100982.31;;;13.89;79.26
32735;BME280;19112;51.076;3.706;2022-10-16T06:01:51;101113.22;;;14.58;79.70
32735;BME280;19112;51.076;3.706;2022-10-16T06:04:18;100977.56;;;13.73;79.47
32735;BME280;19112;51.076;3.706;2022-10-16T06:06:44;101064.75;;;14.16;79.79
32735;BME280;19112;51.076;3.706;2022-10-16T06:09:10;101058.56;;;14.14;80.09
32735;BME280;19112;51.076;3.706;2022-10-16T06:11:36;101094.03;;;14.27;80.11
32735;BME280;19112;51.076;3.706;2022-10-16T06:14:02;101135.75;;;14.42;80.42
32735;BME280;19112;51.076;3.706;2022-10-16T06:16:35;101109.78;;;14.23;80.56
32735;BME280;19112;51.076;3.706;2022-10-16T06:19:02;101083.19;;;14.15;80.58
32735;BME280;19112;51.076;3.706;2022-10-16T06:21:31;101139.50;;;14.50;80.49
32735;BME280;19112;51.076;3.706;2022-10-16T06:23:58;101072.53;;;14.10;80.40
32735;BME280;19112;51.076;3.706;2022-10-16T06:26:27;101128.69;;;14.42;80.34
32735;BME280;19112;51.076;3.706;2022-10-16T06:28:56;101158.25;;;14.64;80.29
32735;BME280;19112;51.076;3.706;2022-10-16T06:31:23;100998.72;;;13.74;80.08
32735;BME280;19112;51.076;3.706;2022-10-16T06:33:53;101168.06;;;14.68;80.35
32735;BME280;19112;51.076;3.706;2022-10-16T06:36:20;101170.72;;;14.70;79.92
32735;BME280;19112;51.076;3.706;2022-10-16T06:38:46;101160.16;;;14.70;80.20
32735;BME280;19112;51.076;3.706;2022-10-16T06:41:15;101132.56;;;14.57;79.89
32735;BME280;19112;51.076;3.706;2022-10-16T06:43:42;101137.06;;;14.61;79.97
32735;BME280;19112;51.076;3.706;2022-10-16T06:46:10;101074.72;;;14.30;79.59
32735;BME280;19112;51.076;3.706;2022-10-16T06:48:36;100968.72;;;13.71;79.55
32735;BME280;19112;51.076;3.706;2022-10-16T06:51:16;101129.19;;;14.64;79.51
32735;BME280;19112;51.076;3.706;2022-10-16T06:53:51;101188.91;;;14.97;79.37
32735;BME280;19112;51.076;3.706;2022-10-16T06:56:26;101192.41;;;14.94;79.41
32735;BME280;19112;51.076;3.706;2022-10-16T06:58:53;101179.91;;;14.87;79.37
32735;BME280;19112;51.076;3.706;2022-10-16T07:01:21;101163.00;;;14.80;79.23
32735;BME280;19112;51.076;3.706;2022-10-16T07:03:48;101173.59;;;14.80;79.41
32735;BME280;19112;51.076;3.706;2022-10-16T07:06:18;101056.69;;;14.10;79.31
32735;BME280;19112;51.076;3.706;2022-10-16T07:08:46;101166.41;;;14.75;79.20
32735;BME280;19112;51.076;3.706;2022-10-16T07:11:15;101062.91;;;14.12;79.29
32735;BME280;19112;51.076;3.706;2022-10-16T07:13:48;101218.94;;;14.99;79.36
32735;BME280;19112;51.076;3.706;2022-10-16T07:16:16;101221.63;;;15.02;79.21
32735;BME280;19112;51.076;3.706;2022-10-16T07:18:44;101223.34;;;14.98;79.31
32735;BME280;19112;51.076;3.706;2022-10-16T07:21:21;101192.91;;;14.76;79.39
32735;BME280;19112;51.076;3.706;2022-10-16T07:23:55;101239.34;;;15.06;79.30
32735;BME280;19112;51.076;3.706;2022-10-16T07:26:21;101177.75;;;14.69;78.92
32735;BME280;19112;51.076;3.706;2022-10-16T07:28:47;101131.09;;;14.32;79.30
32735;BME280;19112;51.076;3.706;2022-10-16T07:31:15;101217.59;;;14.78;79.67
32735;BME280;19112;51.076;3.706;2022-10-16T07:33:43;101161.38;;;14.46;79.61
32735;BME280;19112;51.076;3.706;2022-10-16T07:36:15;101246.94;;;14.90;79.56
32735;BME280;19112;51.076;3.706;2022-10-16T07:38:43;101262.25;;;15.05;79.35
32735;BME280;19112;51.076;3.706;2022-10-16T07:41:13;101192.81;;;14.72;79.07
32735;BME280;19112;51.076;3.706;2022-10-16T07:43:40;101250.78;;;15.05;78.95
32735;BME280;19112;51.076;3.706;2022-10-16T07:46:10;101282.19;;;15.30;78.82
32735;BME280;19112;51.076;3.706;2022-10-16T07:48:36;101279.44;;;15.24;78.84
32735;BME280;19112;51.076;3.706;2022-10-16T07:51:05;101129.59;;;14.43;78.70
32735;BME280;19112;51.076;3.706;2022-10-16T07:53:33;101161.66;;;14.58;78.54
32735;BME280;19112;51.076;3.706;2022-10-16T07:56:01;101267.00;;;15.22;78.52
32735;BME280;19112;51.076;3.706;2022-10-16T07:58:28;101173.38;;;14.70;78.25
32735;BME280;19112;51.076;3.706;2022-10-16T08:00:56;101280.41;;;15.29;78.33
32735;BME280;19112;51.076;3.706;2022-10-16T08:03:25;101258.03;;;15.13;78.49
32735;BME280;19112;51.076;3.706;2022-10-16T08:05:51;101311.72;;;15.50;78.34
32735;BME280;19112;51.076;3.706;2022-10-16T08:08:19;101213.53;;;14.94;78.07
32735;BME280;19112;51.076;3.706;2022-10-16T08:10:45;101243.09;;;15.15;78.08
32735;BME280;19112;51.076;3.706;2022-10-16T08:13:11;101320.91;;;15.66;78.03
32735;BME280;19112;51.076;3.706;2022-10-16T08:15:43;101319.13;;;15.66;78.02
32735;BME280;19112;51.076;3.706;2022-10-16T08:18:11;101219.34;;;15.18;77.52
32735;BME280;19112;51.076;3.706;2022-10-16T08:20:37;101221.19;;;15.23;77.37
32735;BME280;19112;51.076;3.706;2022-10-16T08:23:03;101225.69;;;15.27;77.33
32735;BME280;19112;51.076;3.706;2022-10-16T08:25:29;101327.34;;;15.82;77.41
32735;BME280;19112;51.076;3.706;2022-10-16T08:27:57;101224.88;;;15.29;77.16
32735;BME280;19112;51.076;3.706;2022-10-16T08:30:24;101243.72;;;15.46;76.97
32735;BME280;19112;51.076;3.706;2022-10-16T08:32:50;101323.34;;;16.02;76.79
32735;BME280;19112;51.076;3.706;2022-10-16T08:35:16;101334.03;;;16.08;76.73
32735;BME280;19112;51.076;3.706;2022-10-16T08:37:42;101260.03;;;15.67;76.45
32735;BME280;19112;51.076;3.706;2022-10-16T08:40:30;101341.44;;;16.24;76.14
32735;BME280;19112;51.076;3.706;2022-10-16T08:48:30;101315.66;;;16.17;75.54
32735;BME280;19112;51.076;3.706;2022-10-16T08:51:02;101327.22;;;16.19;75.56
32735;BME280;19112;51.076;3.706;2022-10-16T08:54:22;101347.94;;;16.43;75.40
32735;BME280;19112;51.076;3.706;2022-10-16T08:57:00;101330.94;;;16.31;74.87
32735;BME280;19112;51.076;3.706;2022-10-16T08:59:32;101357.63;;;16.43;75.08
32735;BME280;19112;51.076;3.706;2022-10-16T09:01:59;101314.00;;;16.22;74.98
32735;BME280;19112;51.076;3.706;2022-10-16T09:04:44;101354.19;;;16.48;74.93
32735;BME280;19112;51.076;3.706;2022-10-16T09:07:22;101262.31;;;15.96;74.90
32735;BME280;19112;51.076;3.706;2022-10-16T09:10:38;101365.09;;;16.65;74.84
32735;BME280;19112;51.076;3.706;2022-10-16T09:13:23;101313.38;;;16.37;74.44
32735;BME280;19112;51.076;3.706;2022-10-16T09:16:01;101374.09;;;16.73;74.31
32735;BME280;19112;51.076;3.706;2022-10-16T09:18:43;101306.41;;;16.44;74.38
32735;BME280;19112;51.076;3.706;2022-10-16T09:21:21;101310.03;;;16.49;74.16
32735;BME280;19112;51.076;3.706;2022-10-16T09:23:49;101335.09;;;16.68;73.93
32735;BME280;19112;51.076;3.706;2022-10-16T09:26:17;101393.88;;;16.94;74.01
32735;BME280;19112;51.076;3.706;2022-10-16T09:28:44;101379.69;;;16.92;73.81
32735;BME280;19112;51.076;3.706;2022-10-16T09:31:22;101190.72;;;15.91;73.44
32735;BME280;19112;51.076;3.706;2022-10-16T09:33:57;101299.44;;;16.49;73.18
32735;BME280;19112;51.076;3.706;2022-10-16T09:36:26;101314.78;;;16.68;72.62
32735;BME280;19112;51.076;3.706;2022-10-16T09:39:07;101394.97;;;17.08;73.03
32735;BME280;19112;51.076;3.706;2022-10-16T09:41:36;101391.34;;;17.03;72.80
32735;BME280;19112;51.076;3.706;2022-10-16T09:44:06;101388.72;;;17.03;73.03
32735;BME280;19112;51.076;3.706;2022-10-16T09:46:40;101366.44;;;16.93;73.08
32735;BME280;19112;51.076;3.706;2022-10-16T09:49:26;101340.69;;;16.83;73.09
32735;BME280;19112;51.076;3.706;2022-10-16T09:52:14;101346.16;;;16.94;72.75
32735;BME280;19112;51.076;3.706;2022-10-16T09:55:08;101306.13;;;16.79;72.90
32735;BME280;19112;51.076;3.706;2022-10-16T09:57:51;101295.47;;;16.77;72.96
32735;BME280;19112;51.076;3.706;2022-10-16T10:00:20;101293.84;;;16.85;72.91
32735;BME280;19112;51.076;3.706;2022-10-16T10:02:46;101329.91;;;17.35;72.66
32735;BME280;19112;51.076;3.706;2022-10-16T10:05:22;101405.22;;;18.10;72.12
32735;BME280;19112;51.076;3.706;2022-10-16T10:08:02;101320.09;;;18.02;70.81
32735;BME280;19112;51.076;3.706;2022-10-16T10:10:34;101238.53;;;17.90;69.57
32735;BME280;19112;51.076;3.706;2022-10-16T10:13:02;101401.81;;;19.20;68.21
32735;BME280;19112;51.076;3.706;2022-10-16T10:15:34;101326.25;;;19.00;67.15
32735;BME280;19112;51.076;3.706;2022-10-16T10:18:01;101402.13;;;19.75;66.16
32735;BME280;19112;51.076;3.706;2022-10-16T10:20:34;101357.72;;;19.76;65.40
32735;BME280;19112;51.076;3.706;2022-10-16T10:23:22;101356.00;;;19.92;64.36
32735;BME280;19112;51.076;3.706;2022-10-16T10:26:20;101405.06;;;20.49;62.80
32735;BME280;19112;51.076;3.706;2022-10-16T10:31:43;101415.75;;;20.62;62.12
32735;BME280;19112;51.076;3.706;2022-10-16T10:37:14;101415.75;;;21.02;61.15
32735;BME280;19112;51.076;3.706;2022-10-16T10:40:21;101394.41;;;21.01;60.31
32735;BME280;19112;51.076;3.706;2022-10-16T10:43:03;101355.25;;;20.80;59.81
32735;BME280;19112;51.076;3.706;2022-10-16T10:45:54;101413.97;;;20.98;60.17
32735;BME280;19112;51.076;3.706;2022-10-16T10:51:58;101401.53;;;20.83;60.27
32735;BME280;19112;51.076;3.706;2022-10-16T10:54:52;101419.34;;;20.93;60.20
32735;BME280;19112;51.076;3.706;2022-10-16T10:57:37;101409.53;;;20.96;59.07
32735;BME280;19112;51.076;3.706;2022-10-16T11:00:20;101342.78;;;20.31;59.43
32735;BME280;19112;51.076;3.706;2022-10-16T11:05:44;101422.88;;;20.79;59.47
32735;BME280;19112;51.076;3.706;2022-10-16T11:08:19;101414.88;;;20.74;59.58
32735;BME280;19112;51.076;3.706;2022-10-16T11:10:58;101421.97;;;20.77;59.09
32735;BME280;19112;51.076;3.706;2022-10-16T11:13:42;101381.94;;;20.54;59.15
32735;BME280;19112;51.076;3.706;2022-10-16T11:16:26;101420.22;;;20.62;59.05
32735;BME280;19112;51.076;3.706;2022-10-16T11:19:20;101384.63;;;20.46;59.55
32735;BME280;19112;51.076;3.706;2022-10-16T11:22:20;101413.09;;;20.62;59.54
32735;BME280;19112;51.076;3.706;2022-10-16T11:28:18;101400.63;;;20.66;59.71
32735;BME280;19112;51.076;3.706;2022-10-16T11:31:37;101426.44;;;20.84;58.07
32735;BME280;19112;51.076;3.706;2022-10-16T11:34:44;101366.81;;;20.59;58.47
32735;BME280;19112;51.076;3.706;2022-10-16T11:37:21;101421.09;;;21.01;57.60
32735;BME280;19112;51.076;3.706;2022-10-16T11:39:50;101372.16;;;20.80;54.45
32735;BME280;19112;51.076;3.706;2022-10-16T11:42:29;101368.59;;;20.80;55.32
32735;BME280;19112;51.076;3.706;2022-10-16T11:47:44;101346.34;;;20.50;55.65
32735;BME280;19112;51.076;3.706;2022-10-16T11:55:44;101399.75;;;20.88;56.12
32735;BME280;19112;51.076;3.706;2022-10-16T12:01:16;101386.38;;;20.98;56.21
32735;BME280;19112;51.076;3.706;2022-10-16T12:04:41;101402.41;;;21.16;56.37
32735;BME280;19112;51.076;3.706;2022-10-16T12:07:10;101399.72;;;21.02;56.12
32735;BME280;19112;51.076;3.706;2022-10-16T12:09:39;101347.28;;;20.78;55.89
32735;BME280;19112;51.076;3.706;2022-10-16T12:15:25;101387.28;;;20.90;55.34
32735;BME280;19112;51.076;3.706;2022-10-16T12:17:52;101373.94;;;20.86;54.75
32735;BME280;19112;51.076;3.706;2022-10-16T12:20:32;101392.63;;;21.06;54.60
32735;BME280;19112;51.076;3.706;2022-10-16T12:23:03;101413.97;;;21.15;54.72
32735;BME280;19112;51.076;3.706;2022-10-16T12:25:34;101423.75;;;21.16;54.49
32735;BME280;19112;51.076;3.706;2022-10-16T12:28:20;101375.72;;;20.84;54.64
32735;BME280;19112;51.076;3.706;2022-10-16T12:33:30;101427.31;;;20.90;53.65
32735;BME280;19112;51.076;3.706;2022-10-16T12:35:59;101349.03;;;20.64;53.19
32735;BME280;19112;51.076;3.706;2022-10-16T12:41:11;101366.81;;;20.94;52.92
32735;BME280;19112;51.076;3.706;2022-10-16T12:43:47;101372.13;;;21.14;52.94
32735;BME280;19112;51.076;3.706;2022-10-16T12:48:42;101409.44;;;21.63;52.45
32735;BME280;19112;51.076;3.706;2022-10-16T12:57:27;101416.56;;;21.52;52.37
32735;BME280;19112;51.076;3.706;2022-10-16T13:09:36;101347.19;;;21.23;53.32
32735;BME280;19112;51.076;3.706;2022-10-16T13:12:29;101380.94;;;21.59;53.08
32735;BME280;19112;51.076;3.706;2022-10-16T13:15:58;101416.41;;;22.01;52.55
32735;BME280;19112;51.076;3.706;2022-10-16T13:18:48;101418.16;;;22.14;51.85
32735;BME280;19112;51.076;3.706;2022-10-16T13:21:47;101410.16;;;22.11;51.40
32735;BME280;19112;51.076;3.706;2022-10-16T13:30:14;101405.78;;;21.82;51.74
32735;BME280;19112;51.076;3.706;2022-10-16T13:32:48;101385.38;;;21.60;52.24
32735;BME280;19112;51.076;3.706;2022-10-16T13:35:28;101407.59;;;21.76;52.67
32735;BME280;19112;51.076;3.706;2022-10-16T13:38:31;101324.84;;;21.53;52.55
32735;BME280;19112;51.076;3.706;2022-10-16T13:41:12;101394.97;;;22.08;52.35
32735;BME280;19112;51.076;3.706;2022-10-16T13:43:50;101400.19;;;22.37;52.07
32735;BME280;19112;51.076;3.706;2022-10-16T13:46:20;101397.41;;;22.51;51.50
32735;BME280;19112;51.076;3.706;2022-10-16T13:49:04;101350.28;;;22.30;51.33
32735;BME280;19112;51.076;3.706;2022-10-16T13:51:32;101337.00;;;22.18;50.39
32735;BME280;19112;51.076;3.706;2022-10-16T13:53:58;101406.28;;;22.58;49.66
32735;BME280;19112;51.076;3.706;2022-10-16T13:56:28;101361.03;;;22.24;50.42
32735;BME280;19112;51.076;3.706;2022-10-16T13:59:03;101357.50;;;22.17;50.77
32735;BME280;19112;51.076;3.706;2022-10-16T14:01:42;101404.72;;;22.28;51.47
32735;BME280;19112;51.076;3.706;2022-10-16T14:04:13;101397.59;;;22.20;52.12
32735;BME280;19112;51.076;3.706;2022-10-16T14:06:45;101396.72;;;22.20;51.99
32735;BME280;19112;51.076;3.706;2022-10-16T14:09:24;101395.09;;;21.90;52.40
32735;BME280;19112;51.076;3.706;2022-10-16T14:12:07;101332.00;;;21.52;52.23
32735;BME280;19112;51.076;3.706;2022-10-16T14:14:46;101305.31;;;21.28;52.22
32735;BME280;19112;51.076;3.706;2022-10-16T14:17:38;101355.06;;;21.70;52.31
32735;BME280;19112;51.076;3.706;2022-10-16T14:20:14;101212.00;;;20.94;52.46
32735;BME280;19112;51.076;3.706;2022-10-16T14:22:42;101323.00;;;21.68;52.80
32735;BME280;19112;51.076;3.706;2022-10-16T14:28:22;101398.56;;;22.04;52.73
32735;BME280;19112;51.076;3.706;2022-10-16T14:30:59;101347.00;;;21.76;52.91
32735;BME280;19112;51.076;3.706;2022-10-16T14:38:37;101315.16;;;21.21;54.08